createdAt,value
2017-06-01T00:01:04.751Z,22.02
2017-06-01T00:03:33.025Z,19.84
2017-06-01T00:06:01.989Z,20.52
2017-06-01T00:08:31.157Z,21.82
2017-06-01T00:10:59.370Z,20.90
2017-06-01T00:13:28.325Z,19.58
2017-06-01T00:15:57.507Z,19.60
2017-06-01T00:18:25.806Z,19.88
2017-06-01T00:20:54.814Z,19.42
2017-06-01T00:23:24.089Z,21.50
2017-06-01T00:25:53.101Z,25.04
2017-06-01T00:28:22.069Z,23.14
2017-06-01T00:30:50.514Z,25.08
2017-06-01T00:33:18.737Z,23.28
2017-06-01T00:35:47.657Z,22.84
2017-06-01T00:38:16.875Z,23.74
2017-06-01T00:40:45.911Z,25.74
2017-06-01T00:43:14.193Z,23.68
2017-06-01T00:45:42.727Z,22.86
2017-06-01T00:48:10.918Z,23.00
2017-06-01T00:50:39.818Z,25.20
2017-06-01T00:53:08.842Z,23.88
2017-06-01T00:55:37.725Z,24.76
2017-06-01T00:58:06.613Z,22.80
2017-06-01T01:00:36.128Z,21.74
2017-06-01T01:03:05.061Z,23.64
2017-06-01T01:05:33.261Z,23.48
2017-06-01T01:08:02.417Z,24.50
2017-06-01T01:10:30.613Z,26.26
2017-06-01T01:12:59.546Z,23.02
2017-06-01T01:15:28.543Z,23.74
2017-06-01T01:17:57.442Z,24.70
2017-06-01T01:20:26.407Z,25.50
2017-06-01T01:22:54.777Z,27.72
2017-06-01T01:25:22.937Z,26.74
2017-06-01T01:27:51.965Z,26.42
2017-06-01T01:30:20.318Z,27.20
2017-06-01T01:32:49.399Z,27.34
2017-06-01T01:35:18.470Z,27.32
2017-06-01T01:37:47.706Z,25.60
2017-06-01T01:40:16.806Z,28.90
2017-06-01T01:42:45.142Z,28.88
2017-06-01T01:45:13.741Z,24.86
2017-06-01T01:47:42.210Z,25.90
2017-06-01T01:50:10.729Z,24.92
2017-06-01T01:52:40.138Z,23.76
2017-06-01T01:55:09.233Z,25.50
2017-06-01T01:57:37.553Z,26.86
2017-06-01T02:00:05.882Z,25.38
2017-06-01T02:02:34.973Z,26.98
2017-06-01T02:05:04.069Z,23.94
2017-06-01T02:07:33.285Z,23.92
2017-06-01T02:10:02.314Z,27.16
2017-06-01T02:12:31.384Z,26.28
2017-06-01T02:15:00.590Z,27.38
2017-06-01T02:17:29.689Z,25.10
2017-06-01T02:19:58.866Z,23.46
2017-06-01T02:22:27.565Z,23.18
2017-06-01T02:24:58.070Z,24.50
2017-06-01T02:27:27.552Z,26.10
2017-06-01T02:29:57.062Z,21.90
2017-06-01T02:32:25.354Z,23.94
2017-06-01T02:34:54.653Z,21.76
2017-06-01T02:37:23.738Z,21.92
2017-06-01T02:39:55.595Z,20.80
2017-06-01T02:42:26.120Z,21.98
2017-06-01T02:44:55.230Z,20.84
2017-06-01T02:47:24.374Z,21.14
2017-06-01T02:49:53.865Z,19.68
2017-06-01T02:52:22.195Z,19.98
2017-06-01T02:54:51.305Z,19.38
2017-06-01T02:57:20.610Z,18.86
2017-06-01T02:59:48.966Z,18.28
2017-06-01T03:02:17.930Z,19.94
2017-06-01T03:04:47.129Z,18.02
2017-06-01T03:07:16.281Z,20.62
2017-06-01T03:09:45.370Z,20.10
2017-06-01T03:12:14.630Z,17.76
2017-06-01T03:14:43.741Z,18.42
2017-06-01T03:17:12.853Z,18.60
2017-06-01T03:19:41.982Z,19.36
2017-06-01T03:22:11.050Z,18.94
2017-06-01T03:24:40.054Z,17.36
2017-06-01T03:27:08.610Z,18.22
2017-06-01T03:29:37.730Z,19.22
2017-06-01T03:32:06.118Z,18.68
2017-06-01T03:34:34.646Z,18.40
2017-06-01T03:37:03.717Z,19.82
2017-06-01T03:39:32.914Z,19.54
2017-06-01T03:42:01.458Z,17.68
2017-06-01T03:44:30.738Z,17.62
2017-06-01T03:46:59.178Z,19.48
2017-06-01T03:49:28.351Z,18.10
2017-06-01T03:51:57.633Z,17.28
2017-06-01T03:54:26.653Z,17.68
2017-06-01T03:56:55.173Z,18.74
2017-06-01T03:59:24.278Z,18.14
2017-06-01T04:01:53.310Z,18.38
2017-06-01T04:04:21.849Z,16.26
2017-06-01T04:06:51.006Z,17.02
2017-06-01T04:09:19.318Z,19.18
2017-06-01T04:11:47.788Z,17.24
2017-06-01T04:14:16.143Z,17.14
2017-06-01T04:16:45.211Z,18.98
2017-06-01T04:19:14.405Z,17.60
2017-06-01T04:21:42.666Z,16.12
2017-06-01T04:24:11.642Z,16.90
2017-06-01T04:26:40.106Z,17.14
2017-06-01T04:29:08.344Z,17.98
2017-06-01T04:31:37.363Z,17.20
2017-06-01T04:34:06.493Z,18.70
2017-06-01T04:36:34.701Z,17.64
2017-06-01T04:39:03.010Z,16.92
2017-06-01T04:41:32.200Z,17.42
2017-06-01T04:44:01.226Z,15.52
2017-06-01T04:46:29.561Z,18.84
2017-06-01T04:48:58.832Z,17.72
2017-06-01T04:51:27.001Z,19.82
2017-06-01T04:53:56.152Z,16.50
2017-06-01T04:56:25.209Z,15.92
2017-06-01T04:58:54.258Z,17.22
2017-06-01T05:01:23.251Z,17.66
2017-06-01T05:03:51.493Z,16.10
2017-06-01T05:06:20.454Z,17.10
2017-06-01T05:08:49.354Z,17.36
2017-06-01T05:11:18.437Z,15.96
2017-06-01T05:13:46.725Z,17.12
2017-06-01T05:16:14.973Z,17.90
2017-06-01T05:18:43.358Z,16.16
2017-06-01T05:21:12.335Z,18.42
2017-06-01T05:23:40.537Z,17.92
2017-06-01T05:26:09.781Z,16.16
2017-06-01T05:28:38.758Z,17.58
2017-06-01T05:31:07.002Z,17.36
2017-06-01T05:33:36.129Z,17.46
2017-06-01T05:36:05.074Z,18.52
2017-06-01T05:38:34.023Z,18.86
2017-06-01T05:41:02.365Z,18.72
2017-06-01T05:43:31.305Z,19.13
2017-06-01T05:45:59.697Z,16.57
2017-06-01T05:48:28.726Z,17.70
2017-06-01T05:50:56.965Z,19.03
2017-06-01T05:53:25.090Z,18.10
2017-06-01T05:55:53.433Z,16.65
2017-06-01T05:58:23.338Z,17.56
2017-06-01T06:00:51.459Z,18.94
2017-06-01T06:03:19.802Z,19.24
2017-06-01T06:05:48.734Z,19.50
2017-06-01T06:08:17.630Z,18.48
2017-06-01T06:10:46.745Z,18.10
2017-06-01T06:13:15.042Z,19.36
2017-06-01T06:15:43.953Z,19.10
2017-06-01T06:18:12.296Z,19.88
2017-06-01T06:20:40.584Z,20.44
2017-06-01T06:23:09.530Z,18.48
2017-06-01T06:25:37.918Z,20.62
2017-06-01T06:28:06.900Z,20.22
2017-06-01T06:30:35.802Z,18.94
2017-06-01T06:33:04.049Z,19.94
2017-06-01T06:35:32.285Z,20.18
2017-06-01T06:38:01.218Z,20.02
2017-06-01T06:40:30.381Z,20.73
2017-06-01T06:42:59.320Z,20.00
2017-06-01T06:45:28.253Z,18.55
2017-06-01T06:47:57.286Z,19.17
2017-06-01T06:50:26.182Z,19.53
2017-06-01T06:52:54.401Z,21.37
2017-06-01T06:55:22.701Z,20.10
2017-06-01T06:57:51.737Z,20.72
2017-06-01T07:00:20.016Z,20.56
2017-06-01T07:02:48.438Z,22.90
2017-06-01T07:05:16.634Z,21.92
2017-06-01T07:07:45.550Z,21.94
2017-06-01T07:10:14.662Z,20.96
2017-06-01T07:12:43.637Z,22.26
2017-06-01T07:15:11.838Z,21.14
2017-06-01T07:17:40.820Z,17.56
2017-06-01T07:20:08.980Z,20.32
2017-06-01T07:22:37.189Z,18.98
2017-06-01T07:25:06.302Z,19.52
2017-06-01T07:27:34.605Z,18.82
2017-06-01T07:30:03.662Z,19.96
2017-06-01T07:32:32.742Z,19.86
2017-06-01T07:35:01.690Z,20.30
2017-06-01T07:37:30.748Z,19.12
2017-06-01T07:39:59.177Z,21.02
2017-06-01T07:42:28.081Z,20.70
2017-06-01T07:44:56.974Z,17.98
2017-06-01T07:47:25.237Z,19.82
2017-06-01T07:49:54.251Z,18.68
2017-06-01T07:52:22.468Z,17.32
2017-06-01T07:54:50.760Z,19.84
2017-06-01T07:57:18.975Z,20.32
2017-06-01T07:59:47.359Z,20.24
2017-06-01T08:02:16.507Z,18.98
2017-06-01T08:04:44.777Z,20.20
2017-06-01T08:07:13.084Z,19.78
2017-06-01T08:09:42.208Z,21.14
2017-06-01T08:12:11.167Z,19.14
2017-06-01T08:14:39.337Z,20.62
2017-06-01T08:17:07.675Z,20.78
2017-06-01T08:19:35.943Z,22.70
2017-06-01T08:22:04.162Z,23.72
2017-06-01T08:24:33.264Z,21.66
2017-06-01T08:27:02.879Z,22.04
2017-06-01T08:29:31.883Z,22.74
2017-06-01T08:32:00.976Z,23.80
2017-06-01T08:34:29.104Z,22.04
2017-06-01T08:36:58.111Z,23.96
2017-06-01T08:39:27.259Z,24.98
2017-06-01T08:41:56.371Z,26.18
2017-06-01T08:44:24.675Z,24.00
2017-06-01T08:46:53.779Z,24.80
2017-06-01T08:49:22.789Z,25.08
2017-06-01T08:51:51.064Z,27.40
2017-06-01T08:54:20.058Z,23.00
2017-06-01T08:56:48.964Z,24.06
2017-06-01T08:59:17.163Z,25.54
2017-06-01T09:01:46.384Z,23.50
2017-06-01T09:04:14.651Z,26.54
2017-06-01T09:06:43.603Z,22.38
2017-06-01T09:09:12.018Z,26.12
2017-06-01T09:11:40.931Z,24.76
2017-06-01T09:14:09.176Z,24.62
2017-06-01T09:16:38.263Z,23.80
2017-06-01T09:19:07.267Z,25.90
2017-06-01T09:21:35.413Z,24.74
2017-06-01T09:24:04.587Z,26.14
2017-06-01T09:26:32.860Z,24.68
2017-06-01T09:29:01.823Z,23.70
2017-06-01T09:31:30.951Z,24.64
2017-06-01T09:33:59.119Z,24.82
2017-06-01T09:36:27.336Z,21.84
2017-06-01T09:38:55.687Z,23.04
2017-06-01T09:41:24.596Z,23.64
2017-06-01T09:43:53.548Z,24.20
2017-06-01T09:46:21.847Z,24.46
2017-06-01T09:48:50.707Z,23.10
2017-06-01T09:51:19.736Z,21.54
2017-06-01T09:53:48.128Z,22.30
2017-06-01T09:56:17.091Z,23.36
2017-06-01T09:58:46.052Z,22.24
2017-06-01T10:01:14.441Z,22.70
2017-06-01T10:03:42.753Z,20.90
2017-06-01T10:06:11.760Z,20.78
2017-06-01T10:08:41.022Z,21.66
2017-06-01T10:11:09.288Z,21.16
2017-06-01T10:13:39.055Z,23.76
2017-06-01T10:16:07.403Z,20.66
2017-06-01T10:18:36.372Z,19.62
2017-06-01T10:21:05.328Z,19.00
2017-06-01T10:23:34.467Z,19.06
2017-06-01T10:26:02.651Z,22.20
2017-06-01T10:28:31.571Z,22.20
2017-06-01T10:31:00.692Z,21.02
2017-06-01T10:33:29.703Z,21.08
2017-06-01T10:35:58.707Z,18.60
2017-06-01T10:38:27.819Z,20.84
2017-06-01T10:40:56.087Z,21.68
2017-06-01T10:43:25.135Z,20.80
2017-06-01T10:45:53.611Z,21.52
2017-06-01T10:48:22.655Z,22.06
2017-06-01T10:50:50.871Z,22.20
2017-06-01T10:53:19.955Z,21.32
2017-06-01T10:55:48.963Z,19.26
2017-06-01T10:58:17.915Z,23.48
2017-06-01T11:00:47.020Z,18.68
2017-06-01T11:03:15.227Z,20.58
2017-06-01T11:05:43.615Z,20.44
2017-06-01T11:08:12.780Z,22.60
2017-06-01T11:10:41.103Z,19.22
2017-06-01T11:13:10.051Z,20.46
2017-06-01T11:15:39.155Z,21.04
2017-06-01T11:18:07.365Z,20.58
2017-06-01T11:20:36.323Z,21.48
2017-06-01T11:23:04.677Z,19.84
2017-06-01T11:25:33.647Z,20.54
2017-06-01T11:28:02.567Z,22.78
2017-06-01T11:30:31.663Z,22.08
2017-06-01T11:33:00.611Z,21.14
2017-06-01T11:35:29.619Z,21.06
2017-06-01T11:37:57.939Z,24.68
2017-06-01T11:40:26.859Z,21.14
2017-06-01T11:42:55.035Z,24.02
2017-06-01T11:45:24.091Z,21.48
2017-06-01T11:47:52.991Z,22.06
2017-06-01T11:50:22.003Z,20.66
2017-06-01T11:52:51.056Z,23.12
2017-06-01T11:55:20.080Z,22.68
2017-06-01T11:57:49.091Z,24.26
2017-06-01T12:00:17.451Z,24.20
2017-06-01T12:02:45.711Z,24.20
2017-06-01T12:05:14.617Z,24.92
2017-06-01T12:07:43.844Z,24.32
2017-06-01T12:10:12.111Z,21.98
2017-06-01T12:12:41.165Z,24.08
2017-06-01T12:15:10.251Z,25.64
2017-06-01T12:17:38.511Z,23.08
2017-06-01T12:20:07.479Z,25.42
2017-06-01T12:22:35.796Z,26.22
2017-06-01T12:25:04.711Z,23.94
2017-06-01T12:27:33.695Z,25.06
2017-06-01T12:30:01.901Z,24.52
2017-06-01T12:32:30.862Z,26.42
2017-06-01T12:34:58.992Z,24.04
2017-06-01T12:37:28.091Z,26.76
2017-06-01T12:39:56.399Z,25.90
2017-06-01T12:42:24.731Z,23.36
2017-06-01T12:44:53.087Z,26.24
2017-06-01T12:47:22.103Z,26.50
2017-06-01T12:49:51.052Z,24.12
2017-06-01T12:52:20.087Z,24.56
2017-06-01T12:54:49.128Z,25.64
2017-06-01T12:57:17.335Z,26.38
2017-06-01T12:59:46.539Z,25.68
2017-06-01T13:02:14.679Z,23.78
2017-06-01T13:04:42.909Z,25.96
2017-06-01T13:07:11.264Z,24.94
2017-06-01T13:09:40.411Z,24.94
2017-06-01T13:12:09.312Z,23.42
2017-06-01T13:14:38.351Z,24.72
2017-06-01T13:17:06.660Z,23.46
2017-06-01T13:19:34.951Z,22.90
2017-06-01T13:22:04.146Z,25.50
2017-06-01T13:24:33.215Z,25.56
2017-06-01T13:27:01.340Z,23.58
2017-06-01T13:29:29.735Z,25.20
2017-06-01T13:31:58.711Z,24.60
2017-06-01T13:34:27.676Z,25.70
2017-06-01T13:36:56.712Z,26.72
2017-06-01T13:39:25.727Z,22.44
2017-06-01T13:41:54.680Z,24.20
2017-06-01T13:44:23.811Z,25.54
2017-06-01T13:46:52.187Z,24.86
2017-06-01T13:49:21.149Z,26.76
2017-06-01T13:51:50.249Z,26.30
2017-06-01T13:54:18.416Z,23.24
2017-06-01T13:56:47.344Z,23.16
2017-06-01T13:59:16.523Z,24.34
2017-06-01T14:01:45.499Z,26.36
2017-06-01T14:04:14.851Z,27.64
2017-06-01T14:06:44.088Z,24.80
2017-06-01T14:09:13.151Z,24.38
2017-06-01T14:11:42.236Z,26.14
2017-06-01T14:14:11.376Z,25.80
2017-06-01T14:16:40.348Z,22.14
2017-06-01T14:19:09.252Z,23.14
2017-06-01T14:21:37.503Z,24.84
2017-06-01T14:24:05.814Z,25.48
2017-06-01T14:26:34.027Z,25.72
2017-06-01T14:29:03.124Z,26.30
2017-06-01T14:31:31.396Z,24.50
2017-06-01T14:34:00.341Z,23.60
2017-06-01T14:36:29.468Z,25.40
2017-06-01T14:38:58.487Z,24.56
2017-06-01T14:41:27.447Z,24.84
2017-06-01T14:43:56.487Z,24.68
2017-06-01T14:46:25.440Z,24.74
2017-06-01T14:48:53.588Z,23.50
2017-06-01T14:51:22.732Z,24.30
2017-06-01T14:53:51.693Z,24.56
2017-06-01T14:56:20.704Z,24.42
2017-06-01T14:58:49.835Z,23.78
2017-06-01T15:01:18.785Z,22.30
2017-06-01T15:03:48.065Z,21.64
2017-06-01T15:06:16.320Z,22.02
2017-06-01T15:08:45.319Z,22.48
2017-06-01T15:11:14.307Z,23.32
2017-06-01T15:13:43.446Z,21.38
2017-06-01T15:16:11.659Z,21.46
2017-06-01T15:18:39.920Z,20.66
2017-06-01T15:21:09.007Z,20.36
2017-06-01T15:23:37.923Z,23.00
2017-06-01T15:26:06.842Z,21.44
2017-06-01T15:28:35.932Z,24.12
2017-06-01T15:31:04.091Z,22.60
2017-06-01T15:33:32.303Z,20.16
2017-06-01T15:36:00.604Z,20.70
2017-06-01T15:38:28.779Z,20.66
2017-06-01T15:40:57.723Z,20.24
2017-06-01T15:43:26.082Z,21.00
2017-06-01T15:45:55.066Z,18.56
2017-06-01T15:48:24.068Z,20.76
2017-06-01T15:50:52.393Z,19.80
2017-06-01T15:53:21.345Z,22.22
2017-06-01T15:55:50.276Z,20.24
2017-06-01T15:58:19.306Z,19.92
2017-06-01T16:00:48.202Z,20.48
2017-06-01T16:03:16.354Z,21.92
2017-06-01T16:05:45.419Z,20.38
2017-06-01T16:08:14.365Z,19.98
2017-06-01T16:10:43.263Z,19.58
2017-06-01T16:13:11.602Z,17.54
2017-06-01T16:15:40.685Z,18.92
2017-06-01T16:18:09.585Z,19.08
2017-06-01T16:20:37.915Z,19.44
2017-06-01T16:23:06.030Z,19.18
2017-06-01T16:25:35.006Z,18.56
2017-06-01T16:28:03.250Z,18.60
2017-06-01T16:30:31.490Z,18.56
2017-06-01T16:33:00.417Z,18.76
2017-06-01T16:35:28.746Z,18.52
2017-06-01T16:37:57.706Z,18.06
2017-06-01T16:40:26.658Z,18.98
2017-06-01T16:42:55.676Z,19.44
2017-06-01T16:45:23.902Z,20.32
2017-06-01T16:47:52.789Z,19.12
2017-06-01T16:50:21.821Z,18.56
2017-06-01T16:52:49.978Z,16.62
2017-06-01T16:55:18.922Z,20.26
2017-06-01T16:57:47.257Z,18.14
2017-06-01T17:00:15.409Z,17.74
2017-06-01T17:02:44.390Z,17.38
2017-06-01T17:05:13.478Z,18.50
2017-06-01T17:07:41.673Z,19.66
2017-06-01T17:10:10.646Z,18.36
2017-06-01T17:12:38.981Z,17.96
2017-06-01T17:15:07.218Z,18.12
2017-06-01T17:17:36.313Z,17.76
2017-06-01T17:20:04.638Z,16.92
2017-06-01T17:22:32.765Z,17.56
2017-06-01T17:25:00.957Z,20.12
2017-06-01T17:27:30.017Z,18.76
2017-06-01T17:29:59.057Z,19.86
2017-06-01T17:32:28.005Z,19.74
2017-06-01T17:34:56.994Z,21.02
2017-06-01T17:37:26.079Z,20.42
2017-06-01T17:39:55.018Z,19.88
2017-06-01T17:42:24.059Z,20.52
2017-06-01T17:44:52.966Z,21.64
2017-06-01T17:47:21.211Z,20.38
2017-06-01T17:50:05.057Z,19.52
2017-06-01T17:52:33.214Z,20.62
2017-06-01T17:55:02.383Z,19.86
2017-06-01T17:57:31.429Z,21.26
2017-06-01T18:00:00.335Z,21.30
2017-06-01T18:02:28.502Z,20.38
2017-06-01T18:04:57.449Z,21.56
2017-06-01T18:07:26.362Z,20.96
2017-06-01T18:09:55.270Z,20.50
2017-06-01T18:12:23.537Z,20.20
2017-06-01T18:14:52.466Z,20.08
2017-06-01T18:17:20.707Z,20.94
2017-06-01T18:19:49.715Z,20.56
2017-06-01T18:22:18.607Z,21.88
2017-06-01T18:24:48.600Z,22.02
2017-06-01T18:27:17.714Z,22.44
2017-06-01T18:29:46.610Z,22.00
2017-06-01T18:32:15.650Z,23.10
2017-06-01T18:34:44.679Z,23.14
2017-06-01T18:37:13.054Z,27.64
2017-06-01T18:39:41.336Z,25.20
2017-06-01T18:42:09.614Z,26.62
2017-06-01T18:44:38.500Z,26.66
2017-06-01T18:47:06.745Z,27.86
2017-06-01T18:49:35.753Z,26.10
2017-06-01T18:52:03.957Z,28.86
2017-06-01T18:54:32.846Z,28.08
2017-06-01T18:57:01.818Z,28.44
2017-06-01T18:59:30.705Z,29.38
2017-06-01T19:01:59.638Z,28.56
2017-06-01T19:04:28.668Z,27.76
2017-06-01T19:06:56.904Z,28.58
2017-06-01T19:09:25.846Z,30.36
2017-06-01T19:11:54.249Z,28.40
2017-06-01T19:14:23.182Z,32.20
2017-06-01T19:16:52.114Z,30.20
2017-06-01T19:19:21.090Z,31.60
2017-06-01T19:21:50.185Z,31.32
2017-06-01T19:24:18.378Z,32.34
2017-06-01T19:26:47.445Z,32.62
2017-06-01T19:29:15.728Z,33.30
2017-06-01T19:31:44.707Z,31.76
2017-06-01T19:34:13.773Z,33.30
2017-06-01T19:36:42.662Z,33.42
2017-06-01T19:39:10.950Z,35.70
2017-06-01T19:41:40.625Z,35.82
2017-06-01T19:44:09.566Z,34.52
2017-06-01T19:46:37.730Z,36.86
2017-06-01T19:49:06.834Z,36.24
2017-06-01T19:51:35.721Z,35.54
2017-06-01T19:54:04.584Z,38.24
2017-06-01T19:56:33.613Z,35.94
2017-06-01T19:59:01.723Z,34.74
2017-06-01T20:01:37.454Z,36.56
2017-06-01T20:04:05.659Z,36.62
2017-06-01T20:06:34.651Z,40.52
2017-06-01T20:09:03.874Z,40.58
2017-06-01T20:11:32.822Z,37.20
2017-06-01T20:14:01.814Z,39.60
2017-06-01T20:16:30.850Z,39.38
2017-06-01T20:18:59.794Z,41.26
2017-06-01T20:21:28.033Z,39.16
2017-06-01T20:23:57.234Z,42.14
2017-06-01T20:26:25.353Z,41.70
2017-06-01T20:28:53.622Z,40.34
2017-06-01T20:31:22.726Z,39.42
2017-06-01T20:33:51.646Z,40.62
2017-06-01T20:36:20.618Z,40.52
2017-06-01T20:38:49.766Z,40.44
2017-06-01T20:41:17.956Z,41.08
2017-06-01T20:43:46.853Z,40.86
2017-06-01T20:46:15.258Z,41.10
2017-06-01T20:48:44.203Z,41.00
2017-06-01T20:51:13.226Z,42.46
2017-06-01T20:53:41.594Z,41.02
2017-06-01T20:56:10.530Z,41.96
2017-06-01T20:58:39.465Z,40.68
2017-06-01T21:01:07.834Z,42.28
2017-06-01T21:03:35.941Z,45.56
2017-06-01T21:06:04.138Z,44.44
2017-06-01T21:08:32.409Z,48.28
2017-06-01T21:11:01.397Z,46.08
2017-06-01T21:13:30.249Z,53.32
2017-06-01T21:15:58.626Z,51.42
2017-06-01T21:18:27.521Z,49.00
2017-06-01T21:20:56.470Z,49.82
2017-06-01T21:23:24.890Z,50.68
2017-06-01T21:25:54.024Z,49.30
2017-06-01T21:28:22.917Z,49.02
2017-06-01T21:30:51.882Z,52.72
2017-06-01T21:33:20.118Z,49.40
2017-06-01T21:35:49.114Z,48.72
2017-06-01T21:38:18.225Z,50.10
2017-06-01T21:40:47.258Z,50.74
2017-06-01T21:43:15.414Z,46.58
2017-06-01T21:45:44.490Z,43.88
2017-06-01T21:48:13.518Z,44.90
2017-06-01T21:50:42.413Z,41.36
2017-06-01T21:53:11.454Z,41.24
2017-06-01T21:55:40.425Z,41.00
2017-06-01T21:58:08.614Z,41.64
2017-06-01T22:00:37.677Z,43.94
2017-06-01T22:03:06.656Z,42.90
2017-06-01T22:05:35.648Z,40.84
2017-06-01T22:08:04.750Z,40.46
2017-06-01T22:10:33.689Z,38.38
2017-06-01T22:13:02.627Z,37.58
2017-06-01T22:15:31.645Z,37.66
2017-06-01T22:18:00.590Z,38.16
2017-06-01T22:20:29.517Z,39.38
2017-06-01T22:22:58.604Z,39.08
2017-06-01T22:25:26.790Z,39.92
2017-06-01T22:27:55.829Z,35.26
2017-06-01T22:30:24.933Z,34.88
2017-06-01T22:32:53.866Z,36.46
2017-06-01T22:35:22.850Z,36.62
2017-06-01T22:37:51.173Z,36.06
2017-06-01T22:40:20.138Z,32.32
2017-06-01T22:42:48.988Z,35.12
2017-06-01T22:45:18.002Z,32.30
2017-06-01T22:47:46.150Z,35.46
2017-06-01T22:50:15.086Z,33.58
2017-06-01T22:52:44.113Z,34.10
2017-06-01T22:55:12.957Z,32.90
2017-06-01T22:57:41.189Z,34.16
2017-06-01T23:00:09.457Z,32.58
2017-06-01T23:02:38.398Z,33.10
2017-06-01T23:05:07.382Z,34.60
2017-06-01T23:07:36.493Z,33.38
2017-06-01T23:10:05.514Z,36.44
2017-06-01T23:12:33.657Z,33.00
2017-06-01T23:15:01.938Z,36.08
2017-06-01T23:17:30.869Z,35.14
2017-06-01T23:19:59.846Z,35.10
2017-06-01T23:22:28.906Z,35.84
2017-06-01T23:24:57.842Z,36.22
2017-06-01T23:27:26.025Z,33.74
2017-06-01T23:29:55.225Z,33.46
2017-06-01T23:32:23.425Z,33.32
2017-06-01T23:34:52.421Z,34.54
2017-06-01T23:37:21.534Z,33.46
2017-06-01T23:39:50.421Z,32.66
2017-06-01T23:42:19.314Z,30.00
2017-06-01T23:44:47.661Z,32.50
2017-06-01T23:47:16.610Z,31.10
2017-06-01T23:49:44.853Z,29.26
2017-06-01T23:52:13.203Z,27.72
2017-06-01T23:54:41.397Z,31.28
2017-06-01T23:57:10.378Z,27.54
2017-06-01T23:59:38.693Z,28.44
